createdAt,value
2023-04-21T00:04:25.127Z,14.50
2023-04-21T00:09:47.352Z,12.70
2023-04-21T00:15:10.324Z,18.57
2023-04-21T00:20:32.923Z,13.50
2023-04-21T00:25:55.577Z,20.60
2023-04-21T00:31:17.978Z,10.47
2023-04-21T00:36:40.214Z,16.73
2023-04-21T00:42:02.477Z,13.23
2023-04-21T00:47:25.615Z,12.63
2023-04-21T00:52:49.121Z,14.33
2023-04-21T00:58:11.691Z,15.60
2023-04-21T01:03:34.910Z,16.00
2023-04-21T01:08:59.078Z,14.40
2023-04-21T01:14:21.219Z,15.47
2023-04-21T01:19:44.130Z,15.93
2023-04-21T01:25:07.278Z,16.03
2023-04-21T01:30:29.790Z,13.53
2023-04-21T01:35:52.315Z,15.50
2023-04-21T01:41:15.266Z,17.10
2023-04-21T01:46:38.632Z,16.43
2023-04-21T01:52:00.970Z,17.77
2023-04-21T01:57:23.210Z,12.93
2023-04-21T02:02:46.894Z,20.33
2023-04-21T02:08:09.578Z,12.43
2023-04-21T02:13:32.067Z,16.73
2023-04-21T02:18:57.053Z,17.70
2023-04-21T02:24:19.348Z,15.23
2023-04-21T02:29:41.581Z,16.03
2023-04-21T02:35:04.064Z,13.70
2023-04-21T02:40:27.242Z,20.63
2023-04-21T02:45:49.623Z,23.60
2023-04-21T02:51:13.691Z,19.70
2023-04-21T02:56:36.824Z,18.03
2023-04-21T03:01:58.957Z,17.10
2023-04-21T03:07:21.706Z,15.97
2023-04-21T03:12:43.851Z,16.43
2023-04-21T03:18:06.204Z,17.50
2023-04-21T03:23:28.762Z,20.67
2023-04-21T03:28:53.413Z,19.00
2023-04-21T03:34:15.731Z,15.40
2023-04-21T03:39:38.312Z,18.63
2023-04-21T03:45:07.275Z,16.17
2023-04-21T03:50:30.407Z,19.20
2023-04-21T03:55:52.600Z,17.90
2023-04-21T04:01:15.720Z,17.50
2023-04-21T04:06:37.887Z,17.80
2023-04-21T04:12:00.324Z,17.00
2023-04-21T04:17:22.727Z,16.53
2023-04-21T04:22:44.893Z,20.23
2023-04-21T04:28:07.615Z,20.70
2023-04-21T04:33:30.657Z,18.03
2023-04-21T04:38:52.861Z,19.17
2023-04-21T04:44:17.665Z,17.63
2023-04-21T04:49:39.958Z,23.97
2023-04-21T04:55:04.575Z,15.97
2023-04-21T05:00:26.937Z,18.23
2023-04-21T05:05:49.111Z,17.33
2023-04-21T05:11:11.510Z,19.57
2023-04-21T05:16:34.695Z,18.63
2023-04-21T05:22:01.309Z,19.63
2023-04-21T05:27:23.915Z,22.00
2023-04-21T05:32:46.308Z,21.63
2023-04-21T05:38:08.673Z,16.10
2023-04-21T05:43:33.572Z,15.87
2023-04-21T05:48:55.856Z,16.27
2023-04-21T05:54:18.292Z,14.50
2023-04-21T05:59:40.819Z,19.67
2023-04-21T06:05:03.482Z,17.47
2023-04-21T06:10:26.168Z,19.53
2023-04-21T06:15:48.664Z,16.93
2023-04-21T06:21:11.005Z,19.73
2023-04-21T06:26:33.308Z,19.57
2023-04-21T06:31:55.860Z,16.30
2023-04-21T06:37:18.229Z,20.17
2023-04-21T06:42:40.735Z,20.00
2023-04-21T06:48:03.685Z,18.67
2023-04-21T06:53:26.728Z,15.83
2023-04-21T06:58:49.454Z,19.70
2023-04-21T07:04:11.918Z,20.20
2023-04-21T07:09:34.192Z,14.50
2023-04-21T07:14:56.615Z,15.03
2023-04-21T07:20:19.478Z,19.70
2023-04-21T07:25:41.933Z,17.93
2023-04-21T07:31:04.940Z,16.60
2023-04-21T07:36:30.495Z,18.07
2023-04-21T07:41:54.105Z,19.80
2023-04-21T07:47:18.737Z,18.67
2023-04-21T07:52:40.899Z,20.83
2023-04-21T07:58:06.857Z,19.47
2023-04-21T08:03:29.542Z,14.33
2023-04-21T08:08:52.300Z,19.87
2023-04-21T08:14:15.269Z,18.07
2023-04-21T08:19:37.541Z,20.03
2023-04-21T08:25:00.142Z,15.47
2023-04-21T08:30:22.983Z,17.20
2023-04-21T08:36:01.389Z,17.37
2023-04-21T08:41:25.689Z,17.43
2023-04-21T08:46:50.492Z,18.10
2023-04-21T08:52:14.208Z,17.70
2023-04-21T08:57:36.431Z,15.90
2023-04-21T09:03:02.263Z,14.20
2023-04-21T09:08:25.642Z,13.63
2023-04-21T09:13:47.846Z,12.27
2023-04-21T09:19:16.663Z,15.57
2023-04-21T09:24:45.487Z,14.93
2023-04-21T09:30:08.745Z,12.93
2023-04-21T09:35:36.501Z,13.05
2023-04-21T09:40:59.438Z,13.20
2023-04-21T09:46:22.871Z,15.65
2023-04-21T09:57:17.570Z,11.07
2023-04-21T10:02:48.098Z,12.13
2023-04-21T10:08:12.352Z,12.02
2023-04-21T10:13:36.914Z,11.95
2023-04-21T10:18:59.375Z,12.15
2023-04-21T10:24:22.253Z,17.02
2023-04-21T10:29:56.156Z,9.57
2023-04-21T10:35:23.326Z,13.98
2023-04-21T10:40:46.127Z,8.93
2023-04-21T10:46:36.038Z,12.07
2023-04-21T10:52:02.505Z,10.60
2023-04-21T10:57:24.818Z,10.43
2023-04-21T11:03:03.982Z,12.75
2023-04-21T11:08:26.766Z,8.38
2023-04-21T11:13:49.212Z,12.88
2023-04-21T11:19:11.551Z,11.40
2023-04-21T11:24:34.398Z,10.73
2023-04-21T11:29:57.530Z,11.60
2023-04-21T11:35:20.205Z,10.18
2023-04-21T11:40:49.156Z,13.73
2023-04-21T11:46:24.111Z,10.38
2023-04-21T11:51:46.980Z,11.05
2023-04-21T11:57:09.404Z,7.30
2023-04-21T12:02:33.642Z,11.07
2023-04-21T12:07:56.672Z,8.23
2023-04-21T12:13:29.651Z,13.13
2023-04-21T12:18:52.850Z,6.25
2023-04-21T12:24:15.801Z,8.20
2023-04-21T12:29:38.706Z,6.10
2023-04-21T12:35:01.880Z,8.70
2023-04-21T12:40:24.479Z,5.72
2023-04-21T12:45:47.924Z,8.15
2023-04-21T12:51:10.325Z,6.85
2023-04-21T12:56:32.661Z,6.35
2023-04-21T13:01:55.457Z,7.88
2023-04-21T13:07:21.399Z,6.97
2023-04-21T13:12:44.376Z,6.85
2023-04-21T13:18:06.953Z,6.60
2023-04-21T13:23:29.836Z,9.57
2023-04-21T13:28:52.439Z,8.10
2023-04-21T13:34:15.094Z,10.27
2023-04-21T13:39:37.426Z,6.88
2023-04-21T13:45:05.511Z,8.60
2023-04-21T13:50:27.956Z,11.52
2023-04-21T13:55:51.462Z,7.13
2023-04-21T14:01:14.800Z,9.93
2023-04-21T14:06:37.425Z,7.13
2023-04-21T14:11:59.990Z,8.20
2023-04-21T14:17:23.281Z,6.85
2023-04-21T14:22:46.066Z,8.00
2023-04-21T14:28:11.187Z,9.52
2023-04-21T14:33:35.296Z,8.48
2023-04-21T14:38:57.995Z,7.07
2023-04-21T14:44:20.082Z,6.47
2023-04-21T14:49:43.273Z,10.60
2023-04-21T14:55:06.337Z,7.05
2023-04-21T15:00:29.767Z,5.43
2023-04-21T15:05:52.372Z,7.90
2023-04-21T15:11:15.013Z,7.63
2023-04-21T15:16:37.421Z,7.03
2023-04-21T15:22:00.436Z,8.32
2023-04-21T15:27:23.300Z,6.85
2023-04-21T15:32:45.516Z,18.30
2023-04-21T15:38:07.997Z,11.00
2023-04-21T15:43:30.411Z,8.38
2023-04-21T15:48:52.620Z,8.57
2023-04-21T15:54:16.242Z,7.82
2023-04-21T15:59:38.568Z,8.55
2023-04-21T16:05:01.364Z,6.38
2023-04-21T16:10:24.063Z,5.47
2023-04-21T16:15:46.536Z,6.95
2023-04-21T16:21:09.135Z,5.85
2023-04-21T16:26:33.316Z,5.65
2023-04-21T16:31:56.002Z,6.50
2023-04-21T16:37:18.424Z,7.47
2023-04-21T16:42:41.058Z,6.43
2023-04-21T16:48:03.420Z,5.18
2023-04-21T16:53:25.832Z,5.53
2023-04-21T16:58:48.368Z,7.47
2023-04-21T17:04:14.101Z,7.20
2023-04-21T17:09:36.868Z,9.25
2023-04-21T17:14:59.023Z,5.35
2023-04-21T17:20:21.818Z,4.40
2023-04-21T17:25:43.932Z,5.32
2023-04-21T17:31:14.953Z,5.32
2023-04-21T17:36:40.285Z,7.93
2023-04-21T17:42:02.998Z,5.03
2023-04-21T17:47:25.744Z,6.30
2023-04-21T17:52:48.252Z,5.43
2023-04-21T17:58:12.532Z,4.93
2023-04-21T18:03:36.304Z,8.43
2023-04-21T18:08:58.619Z,8.30
2023-04-21T18:14:21.218Z,4.13
2023-04-21T18:19:43.523Z,8.57
2023-04-21T18:25:06.463Z,3.83
2023-04-21T18:30:29.150Z,4.22
2023-04-21T18:35:51.418Z,3.80
2023-04-21T18:41:14.322Z,4.32
2023-04-21T18:46:36.908Z,6.53
2023-04-21T18:51:59.256Z,5.57
2023-04-21T18:57:21.966Z,4.80
2023-04-21T19:02:48.641Z,7.05
2023-04-21T19:08:11.535Z,4.18
2023-04-21T19:13:33.845Z,4.75
2023-04-21T19:18:56.339Z,3.97
2023-04-21T19:24:22.401Z,5.00
2023-04-21T19:29:47.339Z,6.95
2023-04-21T19:35:12.499Z,5.20
2023-04-21T19:40:35.599Z,5.20
2023-04-21T19:45:58.772Z,5.90
2023-04-21T19:51:21.829Z,5.53
2023-04-21T19:56:44.730Z,5.57
2023-04-21T20:02:07.795Z,6.50
2023-04-21T20:07:30.322Z,5.40
2023-04-21T20:12:52.809Z,4.90
2023-04-21T20:18:15.162Z,9.37
2023-04-21T20:23:37.262Z,6.77
2023-04-21T20:29:00.226Z,5.73
2023-04-21T20:34:22.761Z,7.40
2023-04-21T20:39:46.882Z,7.03
2023-04-21T20:45:09.461Z,6.93
2023-04-21T20:50:31.914Z,6.77
2023-04-21T20:55:54.063Z,12.00
2023-04-21T21:01:16.795Z,8.77
2023-04-21T21:06:39.165Z,15.73
2023-04-21T21:12:02.437Z,6.17
2023-04-21T21:17:25.197Z,12.03
2023-04-21T21:22:47.810Z,7.63
2023-04-21T21:28:09.965Z,10.40
2023-04-21T21:33:32.428Z,6.50
2023-04-21T21:38:54.546Z,10.47
2023-04-21T21:44:17.125Z,9.30
2023-04-21T21:49:39.612Z,9.97
2023-04-21T21:55:01.908Z,6.13
2023-04-21T22:00:24.214Z,10.80
2023-04-21T22:05:47.556Z,7.23
2023-04-21T22:11:09.790Z,8.83
2023-04-21T22:16:32.140Z,9.10
2023-04-21T22:21:54.961Z,6.87
2023-04-21T22:27:17.167Z,8.17
2023-04-21T22:32:39.729Z,10.07
2023-04-21T22:38:01.907Z,11.23
2023-04-21T22:43:24.332Z,7.57
2023-04-21T22:48:46.809Z,11.07
2023-04-21T22:54:10.499Z,11.63
2023-04-21T22:59:33.082Z,8.33
2023-04-21T23:04:55.928Z,7.30
2023-04-21T23:10:18.294Z,12.27
2023-04-21T23:15:40.703Z,10.00
2023-04-21T23:21:03.123Z,6.83
2023-04-21T23:26:25.316Z,7.37
2023-04-21T23:31:48.024Z,8.17
2023-04-21T23:37:10.643Z,9.80
2023-04-21T23:42:33.012Z,7.43
2023-04-21T23:47:55.274Z,9.07
2023-04-21T23:53:17.436Z,8.40
2023-04-21T23:58:39.540Z,8.53
